Weather at Ballyjamesduff Airstrip

Public forecast

Using degrees Celsius for public forecast. Weather courtesy of forecast.io.

Closest aviation weather report (METAR) to Ballyjamesduff Airstrip

Closest report is Dublin Airport, 42.9 nm (79.4 km) SE. Retrieved 2022/06/29 22:00 UTC (50 seconds ago):

EIDW 292200Z 27006KT 9999 FEW015 SCT030 BKN120 13/10 Q1008 NOSIG

Closest aviation forecast (TAF) to Ballyjamesduff Airstrip

Closest forecast is Dublin Airport, 42.9 nm (79.4 km) SE. Retrieved 2022/06/29 18:08 UTC (4 hours ago):

TAF EIDW 291700Z 2918/3018 28008KT 9999 FEW018 SCT030 TEMPO 2918/2921 -SHRA FEW013 SCT020CB PROB40 TEMPO 2918/2920 4000 SHRA PROB30 TEMPO 2918/2919 09007KT PROB30 TEMPO 2923/3004 4000 SHRA